Sacul, Texas
Current Conditions -  °F | °C
As of 11:15 PM on Thursday 30 Oct 2014 (Local Time) from KJSO Reporting Station
Scattered Clouds Scattered Clouds  
Wind Chill: 66°   Ceiling: Unl
Heat Index: 66°   Visibility: 10mi
Dew Point: 45°   Wind: 0mph
Humidity: 47%   Direction: NA
Pressure: 30.14"   Gusts: NA
Location:  31.82°N, 94.92°W
Report Text: KJSO 310415Z AUTO 00000KT 10SM SCT120 18/07 A3014 RMK AO2 T01900074
Loading
Personal Weather Stations






























Interactive Weather Map
Tropical Storm Tracking
New forecast layout! Learn more

10-Day Weather Forecast

Advertisements
Track Severe Weather on mobile